sensor_id;sensor_type;location;lat;lon;timestamp;P1;durP1;ratioP1;P2;durP2;ratioP2
14153;SDS011;7157;53.144;7.570;2023-06-14T00:08:31;6.95;;;1.55;;
14153;SDS011;7157;53.144;7.570;2023-06-14T00:18:35;3.97;;;1.35;;
14153;SDS011;7157;53.144;7.570;2023-06-14T00:28:39;3.95;;;1.52;;
14153;SDS011;7157;53.144;7.570;2023-06-14T00:38:43;9.75;;;1.40;;
14153;SDS011;7157;53.144;7.570;2023-06-14T00:48:46;4.88;;;1.38;;
14153;SDS011;7157;53.144;7.570;2023-06-14T00:58:51;4.85;;;1.63;;
14153;SDS011;7157;53.144;7.570;2023-06-14T01:08:57;3.50;;;1.60;;
14153;SDS011;7157;53.144;7.570;2023-06-14T01:19:10;3.60;;;1.60;;
14153;SDS011;7157;53.144;7.570;2023-06-14T01:29:16;3.45;;;1.50;;
14153;SDS011;7157;53.144;7.570;2023-06-14T01:39:20;5.97;;;1.75;;
14153;SDS011;7157;53.144;7.570;2023-06-14T01:49:26;3.90;;;1.60;;
14153;SDS011;7157;53.144;7.570;2023-06-14T01:59:29;6.68;;;1.70;;
14153;SDS011;7157;53.144;7.570;2023-06-14T02:09:35;3.92;;;1.90;;
14153;SDS011;7157;53.144;7.570;2023-06-14T02:19:38;7.13;;;1.92;;
14153;SDS011;7157;53.144;7.570;2023-06-14T02:29:42;6.32;;;1.75;;
14153;SDS011;7157;53.144;7.570;2023-06-14T02:39:45;7.38;;;2.28;;
14153;SDS011;7157;53.144;7.570;2023-06-14T02:49:49;4.18;;;1.75;;
14153;SDS011;7157;53.144;7.570;2023-06-14T02:59:52;6.43;;;2.25;;
14153;SDS011;7157;53.144;7.570;2023-06-14T03:09:56;4.95;;;2.10;;
14153;SDS011;7157;53.144;7.570;2023-06-14T03:19:59;5.05;;;2.00;;
14153;SDS011;7157;53.144;7.570;2023-06-14T03:30:03;9.63;;;2.33;;
14153;SDS011;7157;53.144;7.570;2023-06-14T03:40:07;8.13;;;2.28;;
14153;SDS011;7157;53.144;7.570;2023-06-14T03:50:12;10.23;;;2.50;;
14153;SDS011;7157;53.144;7.570;2023-06-14T04:00:16;5.82;;;2.63;;
14153;SDS011;7157;53.144;7.570;2023-06-14T04:10:21;5.32;;;2.10;;
14153;SDS011;7157;53.144;7.570;2023-06-14T04:20:23;5.63;;;2.55;;
14153;SDS011;7157;53.144;7.570;2023-06-14T04:30:29;4.88;;;2.38;;
14153;SDS011;7157;53.144;7.570;2023-06-14T04:40:32;4.72;;;2.20;;
14153;SDS011;7157;53.144;7.570;2023-06-14T04:50:37;4.25;;;2.25;;
14153;SDS011;7157;53.144;7.570;2023-06-14T05:00:42;5.28;;;2.35;;
14153;SDS011;7157;53.144;7.570;2023-06-14T05:10:46;6.78;;;2.22;;
14153;SDS011;7157;53.144;7.570;2023-06-14T05:20:49;4.07;;;2.38;;
14153;SDS011;7157;53.144;7.570;2023-06-14T05:30:53;8.75;;;2.22;;
14153;SDS011;7157;53.144;7.570;2023-06-14T05:40:56;5.55;;;2.50;;
14153;SDS011;7157;53.144;7.570;2023-06-14T05:51:02;8.50;;;2.60;;
14153;SDS011;7157;53.144;7.570;2023-06-14T06:01:04;5.90;;;2.50;;
14153;SDS011;7157;53.144;7.570;2023-06-14T06:11:09;5.47;;;2.28;;
14153;SDS011;7157;53.144;7.570;2023-06-14T06:21:12;5.40;;;2.05;;
14153;SDS011;7157;53.144;7.570;2023-06-14T06:31:16;6.75;;;2.25;;
14153;SDS011;7157;53.144;7.570;2023-06-14T06:41:18;5.07;;;2.70;;
14153;SDS011;7157;53.144;7.570;2023-06-14T06:51:23;8.75;;;2.00;;
14153;SDS011;7157;53.144;7.570;2023-06-14T07:01:25;9.20;;;2.05;;
14153;SDS011;7157;53.144;7.570;2023-06-14T07:11:31;5.93;;;2.35;;
14153;SDS011;7157;53.144;7.570;2023-06-14T07:21:34;8.30;;;2.25;;
14153;SDS011;7157;53.144;7.570;2023-06-14T07:31:40;4.50;;;1.90;;
14153;SDS011;7157;53.144;7.570;2023-06-14T07:41:43;6.47;;;1.98;;
14153;SDS011;7157;53.144;7.570;2023-06-14T07:51:47;3.47;;;1.80;;
14153;SDS011;7157;53.144;7.570;2023-06-14T08:01:51;5.78;;;1.83;;
14153;SDS011;7157;53.144;7.570;2023-06-14T08:11:55;6.10;;;1.90;;
14153;SDS011;7157;53.144;7.570;2023-06-14T08:21:58;5.13;;;1.60;;
14153;SDS011;7157;53.144;7.570;2023-06-14T08:32:02;6.90;;;2.00;;
14153;SDS011;7157;53.144;7.570;2023-06-14T08:42:06;4.55;;;1.70;;
14153;SDS011;7157;53.144;7.570;2023-06-14T08:52:22;5.40;;;1.60;;
14153;SDS011;7157;53.144;7.570;2023-06-14T09:02:25;6.57;;;1.50;;
14153;SDS011;7157;53.144;7.570;2023-06-14T09:12:29;4.47;;;1.30;;
14153;SDS011;7157;53.144;7.570;2023-06-14T09:22:32;3.72;;;1.40;;
14153;SDS011;7157;53.144;7.570;2023-06-14T09:32:37;5.75;;;1.60;;
14153;SDS011;7157;53.144;7.570;2023-06-14T09:42:41;6.20;;;1.52;;
14153;SDS011;7157;53.144;7.570;2023-06-14T09:52:47;6.35;;;1.88;;
14153;SDS011;7157;53.144;7.570;2023-06-14T10:02:54;3.00;;;1.50;;
14153;SDS011;7157;53.144;7.570;2023-06-14T10:13:04;6.30;;;1.50;;
14153;SDS011;7157;53.144;7.570;2023-06-14T10:23:09;4.68;;;1.40;;
14153;SDS011;7157;53.144;7.570;2023-06-14T10:33:17;2.83;;;1.23;;
14153;SDS011;7157;53.144;7.570;2023-06-14T10:43:23;8.75;;;1.30;;
14153;SDS011;7157;53.144;7.570;2023-06-14T10:53:27;4.72;;;1.38;;
14153;SDS011;7157;53.144;7.570;2023-06-14T11:03:36;5.10;;;1.60;;
14153;SDS011;7157;53.144;7.570;2023-06-14T11:13:54;3.42;;;1.60;;
14153;SDS011;7157;53.144;7.570;2023-06-14T11:23:56;6.53;;;1.48;;
14153;SDS011;7157;53.144;7.570;2023-06-14T11:34:01;7.55;;;1.60;;
14153;SDS011;7157;53.144;7.570;2023-06-14T11:44:05;4.13;;;1.60;;
14153;SDS011;7157;53.144;7.570;2023-06-14T11:54:10;3.45;;;1.70;;
14153;SDS011;7157;53.144;7.570;2023-06-14T12:04:13;9.25;;;1.40;;
14153;SDS011;7157;53.144;7.570;2023-06-14T12:14:17;4.65;;;1.80;;
14153;SDS011;7157;53.144;7.570;2023-06-14T12:24:21;8.57;;;1.70;;
14153;SDS011;7157;53.144;7.570;2023-06-14T12:34:32;4.07;;;1.60;;
14153;SDS011;7157;53.144;7.570;2023-06-14T12:44:35;6.57;;;1.70;;
14153;SDS011;7157;53.144;7.570;2023-06-14T12:54:43;7.53;;;2.10;;
14153;SDS011;7157;53.144;7.570;2023-06-14T13:04:46;3.20;;;1.60;;
14153;SDS011;7157;53.144;7.570;2023-06-14T13:14:50;3.53;;;1.80;;
14153;SDS011;7157;53.144;7.570;2023-06-14T13:24:52;4.72;;;1.50;;
14153;SDS011;7157;53.144;7.570;2023-06-14T13:34:57;5.47;;;1.83;;
14153;SDS011;7157;53.144;7.570;2023-06-14T13:44:59;7.70;;;1.90;;
14153;SDS011;7157;53.144;7.570;2023-06-14T13:55:04;5.43;;;1.80;;
14153;SDS011;7157;53.144;7.570;2023-06-14T14:05:08;4.90;;;1.80;;
14153;SDS011;7157;53.144;7.570;2023-06-14T14:15:12;4.15;;;1.80;;
14153;SDS011;7157;53.144;7.570;2023-06-14T14:25:16;3.65;;;1.80;;
14153;SDS011;7157;53.144;7.570;2023-06-14T14:35:20;6.47;;;1.98;;
14153;SDS011;7157;53.144;7.570;2023-06-14T14:45:26;6.72;;;1.92;;
14153;SDS011;7157;53.144;7.570;2023-06-14T14:55:30;9.73;;;1.95;;
14153;SDS011;7157;53.144;7.570;2023-06-14T15:15:40;4.68;;;1.90;;
14153;SDS011;7157;53.144;7.570;2023-06-14T15:25:43;3.58;;;1.80;;
14153;SDS011;7157;53.144;7.570;2023-06-14T15:35:47;7.72;;;2.00;;
14153;SDS011;7157;53.144;7.570;2023-06-14T15:45:49;4.68;;;2.05;;
14153;SDS011;7157;53.144;7.570;2023-06-14T15:55:54;5.45;;;2.08;;
14153;SDS011;7157;53.144;7.570;2023-06-14T16:05:56;5.35;;;1.83;;
14153;SDS011;7157;53.144;7.570;2023-06-14T16:16:00;8.57;;;2.20;;
14153;SDS011;7157;53.144;7.570;2023-06-14T16:26:03;8.20;;;2.15;;
14153;SDS011;7157;53.144;7.570;2023-06-14T16:36:07;6.90;;;2.10;;
14153;SDS011;7157;53.144;7.570;2023-06-14T16:46:10;4.70;;;1.90;;
14153;SDS011;7157;53.144;7.570;2023-06-14T16:56:14;6.03;;;2.15;;
14153;SDS011;7157;53.144;7.570;2023-06-14T17:06:17;7.90;;;2.28;;
14153;SDS011;7157;53.144;7.570;2023-06-14T17:16:23;5.90;;;2.30;;
14153;SDS011;7157;53.144;7.570;2023-06-14T17:26:26;6.70;;;2.10;;
14153;SDS011;7157;53.144;7.570;2023-06-14T17:36:30;10.07;;;2.28;;
14153;SDS011;7157;53.144;7.570;2023-06-14T17:46:33;4.22;;;1.95;;
14153;SDS011;7157;53.144;7.570;2023-06-14T17:56:37;5.38;;;2.13;;
14153;SDS011;7157;53.144;7.570;2023-06-14T18:06:40;6.18;;;1.98;;
14153;SDS011;7157;53.144;7.570;2023-06-14T18:16:44;7.45;;;2.08;;
14153;SDS011;7157;53.144;7.570;2023-06-14T18:26:47;9.23;;;2.05;;
14153;SDS011;7157;53.144;7.570;2023-06-14T18:36:51;7.07;;;1.98;;
14153;SDS011;7157;53.144;7.570;2023-06-14T18:46:57;4.13;;;1.90;;
14153;SDS011;7157;53.144;7.570;2023-06-14T18:57:01;7.05;;;1.77;;
14153;SDS011;7157;53.144;7.570;2023-06-14T19:07:04;7.18;;;1.77;;
14153;SDS011;7157;53.144;7.570;2023-06-14T19:17:10;5.78;;;1.90;;
14153;SDS011;7157;53.144;7.570;2023-06-14T19:27:16;6.72;;;2.42;;
14153;SDS011;7157;53.144;7.570;2023-06-14T19:37:21;5.13;;;1.85;;
14153;SDS011;7157;53.144;7.570;2023-06-14T19:47:24;5.03;;;1.88;;
14153;SDS011;7157;53.144;7.570;2023-06-14T19:57:28;6.70;;;2.00;;
14153;SDS011;7157;53.144;7.570;2023-06-14T20:07:31;6.68;;;2.13;;
14153;SDS011;7157;53.144;7.570;2023-06-14T20:17:35;5.72;;;1.85;;
14153;SDS011;7157;53.144;7.570;2023-06-14T20:27:38;7.72;;;1.83;;
14153;SDS011;7157;53.144;7.570;2023-06-14T20:37:42;6.40;;;2.15;;
14153;SDS011;7157;53.144;7.570;2023-06-14T20:47:45;11.80;;;2.08;;
14153;SDS011;7157;53.144;7.570;2023-06-14T20:57:51;7.38;;;2.28;;
14153;SDS011;7157;53.144;7.570;2023-06-14T21:07:54;8.68;;;1.85;;
14153;SDS011;7157;53.144;7.570;2023-06-14T21:17:58;5.50;;;2.00;;
14153;SDS011;7157;53.144;7.570;2023-06-14T21:28:01;7.57;;;1.90;;
14153;SDS011;7157;53.144;7.570;2023-06-14T21:38:06;8.35;;;1.90;;
14153;SDS011;7157;53.144;7.570;2023-06-14T21:48:08;7.85;;;1.83;;
14153;SDS011;7157;53.144;7.570;2023-06-14T21:58:13;9.85;;;1.63;;
14153;SDS011;7157;53.144;7.570;2023-06-14T22:08:15;5.22;;;2.17;;
14153;SDS011;7157;53.144;7.570;2023-06-14T22:18:22;8.70;;;2.10;;
14153;SDS011;7157;53.144;7.570;2023-06-14T22:28:25;4.97;;;1.85;;
14153;SDS011;7157;53.144;7.570;2023-06-14T22:38:29;5.97;;;2.05;;
14153;SDS011;7157;53.144;7.570;2023-06-14T22:48:32;4.78;;;2.10;;
14153;SDS011;7157;53.144;7.570;2023-06-14T22:58:47;5.60;;;2.45;;
14153;SDS011;7157;53.144;7.570;2023-06-14T23:08:50;6.10;;;2.03;;
14153;SDS011;7157;53.144;7.570;2023-06-14T23:18:56;5.45;;;2.17;;
14153;SDS011;7157;53.144;7.570;2023-06-14T23:28:59;11.77;;;2.45;;
14153;SDS011;7157;53.144;7.570;2023-06-14T23:39:04;3.90;;;2.08;;
14153;SDS011;7157;53.144;7.570;2023-06-14T23:49:07;7.72;;;2.55;;
14153;SDS011;7157;53.144;7.570;2023-06-14T23:59:12;7.07;;;2.30;;
